Time;durP1;ratioP1;P1;durP2;ratioP2;P2;SDS_P1;SDS_P2;PMS_P1;PMS_P2;Temp;Humidity;BMP_temperature;BMP_pressure;BME280_temperature;BME280_humidity;BME280_pressure;Samples;Min_cycle;Max_cycle;Signal;HPM_P1;HPM_P2
2021/10/22 00:02:18;;;;;;;4.90;2.05;;;;;;;6.06;98.75;100555.53;5029135;28;20406;-76
2021/10/22 00:04:44;;;;;;;4.68;1.98;;;;;;;5.99;100.00;100556.16;5027936;28;20124;-76
2021/10/22 00:07:09;;;;;;;2.92;1.73;;;;;;;5.97;99.99;100564.13;5028613;28;20033;-76
2021/10/22 00:09:35;;;;;;;5.95;2.03;;;;;;;6.01;97.81;100562.94;5029591;28;20034;-76
2021/10/22 00:12:00;;;;;;;5.68;1.95;;;;;;;5.97;99.04;100560.69;5029944;28;20068;-76
2021/10/22 00:14:25;;;;;;;4.97;2.15;;;;;;;5.95;98.35;100553.75;5026235;28;20036;-76
2021/10/22 00:16:51;;;;;;;5.00;1.70;;;;;;;5.93;100.00;100566.16;5030045;28;20033;-76
2021/10/22 00:19:16;;;;;;;4.38;1.70;;;;;;;5.91;100.00;100562.81;5029568;28;20041;-76
2021/10/22 00:21:42;;;;;;;4.82;1.58;;;;;;;5.88;99.92;100567.44;5030093;28;20036;-76
2021/10/22 00:24:07;;;;;;;3.63;1.80;;;;;;;5.87;100.00;100571.03;5027394;28;20037;-76
2021/10/22 00:26:33;;;;;;;4.28;1.60;;;;;;;5.89;99.56;100569.13;5028951;28;20498;-76
2021/10/22 00:28:59;;;;;;;3.58;1.70;;;;;;;5.88;99.73;100560.41;5029537;28;20453;-76
2021/10/22 00:31:24;;;;;;;2.70;1.50;;;;;;;5.86;99.48;100570.19;5029903;28;20032;-76
2021/10/22 00:33:50;;;;;;;6.97;1.90;;;;;;;5.88;98.66;100572.69;5024813;28;20394;-76
2021/10/22 00:36:16;;;;;;;5.72;1.70;;;;;;;5.85;98.16;100571.16;5027570;28;20033;-76
2021/10/22 00:38:42;;;;;;;4.35;1.80;;;;;;;5.86;99.53;100575.44;5027802;28;20487;-76
2021/10/22 00:41:07;;;;;;;2.70;1.55;;;;;;;5.85;98.83;100575.56;5029411;28;20163;-76
2021/10/22 00:43:33;;;;;;;3.63;1.85;;;;;;;5.78;99.26;100580.47;5029572;28;20026;-76
2021/10/22 00:45:59;;;;;;;3.90;1.60;;;;;;;5.75;100.00;100584.16;5029351;28;20641;-76
2021/10/22 00:48:25;;;;;;;4.72;1.50;;;;;;;5.77;99.20;100581.44;5024046;28;20040;-76
2021/10/22 00:50:59;;;;;;;4.05;1.63;;;;;;;5.71;99.11;100592.38;5028062;28;20033;-76
2021/10/22 00:53:28;;;;;;;3.72;1.60;;;;;;;5.63;98.91;100585.13;5029337;28;20176;-76
2021/10/22 00:55:53;;;;;;;4.55;1.90;;;;;;;5.56;99.80;100583.91;5029092;28;20165;-76
2021/10/22 00:58:20;;;;;;;5.63;2.05;;;;;;;5.48;99.57;100589.75;5029017;28;20187;-76
2021/10/22 01:00:46;;;;;;;3.58;1.90;;;;;;;5.54;97.41;100580.56;5029543;28;20032;-76
2021/10/22 01:03:11;;;;;;;4.63;1.77;;;;;;;5.45;99.78;100597.00;5028988;28;20053;-76
2021/10/22 01:05:37;;;;;;;4.18;1.95;;;;;;;5.45;99.48;100597.00;5029317;28;20029;-76
2021/10/22 01:08:03;;;;;;;7.47;2.20;;;;;;;5.53;96.39;100582.38;5028500;28;20358;-76
2021/10/22 01:10:29;;;;;;;6.00;2.20;;;;;;;5.42;96.35;100597.25;5028906;28;20026;-76
2021/10/22 01:12:56;;;;;;;7.28;3.95;;;;;;;5.39;96.13;100593.06;5029164;28;20025;-76
2021/10/22 01:15:21;;;;;;;6.90;2.75;;;;;;;5.29;97.88;100589.47;5025099;28;20041;-76
2021/10/22 01:17:47;;;;;;;6.60;2.30;;;;;;;5.29;100.00;100592.94;5027660;28;20037;-76
2021/10/22 01:20:19;;;;;;;4.68;2.08;;;;;;;5.22;100.00;100594.34;5028443;28;20048;-76
2021/10/22 01:22:46;;;;;;;5.28;2.15;;;;;;;5.21;100.00;100597.91;5029224;28;20034;-76
2021/10/22 01:25:14;;;;;;;4.20;1.90;;;;;;;5.23;99.19;100590.78;5027874;28;20471;-76
2021/10/22 01:27:40;;;;;;;3.85;1.83;;;;;;;5.16;100.00;100591.34;5029511;28;20021;-76
2021/10/22 01:30:08;;;;;;;5.60;2.20;;;;;;;5.22;97.65;100590.88;5032038;28;20128;-76
2021/10/22 01:32:34;;;;;;;5.43;2.05;;;;;;;5.13;99.29;100597.66;5031384;28;20025;-76
2021/10/22 01:35:00;;;;;;;5.60;1.90;;;;;;;5.15;97.96;100598.38;5028355;28;20490;-76
2021/10/22 01:37:25;;;;;;;9.75;2.50;;;;;;;5.10;98.62;100595.25;5032518;28;20075;-76
2021/10/22 01:39:50;;;;;;;5.53;2.08;;;;;;;5.02;100.00;100595.00;5030832;28;20041;-76
2021/10/22 01:42:16;;;;;;;6.50;2.53;;;;;;;4.96;100.00;100606.78;5030534;28;20055;-76
2021/10/22 01:44:42;;;;;;;3.97;1.92;;;;;;;5.00;100.00;100608.22;5031977;28;20034;-76
2021/10/22 01:47:07;;;;;;;6.00;1.98;;;;;;;5.04;99.26;100599.19;5032074;28;20061;-76
2021/10/22 01:49:33;;;;;;;6.18;1.75;;;;;;;5.02;100.00;100615.97;5027290;28;20032;-76
2021/10/22 01:51:58;;;;;;;4.20;1.80;;;;;;;5.06;100.00;100599.91;5032209;28;20482;-76
2021/10/22 01:54:23;;;;;;;4.75;1.90;;;;;;;5.09;100.00;100598.84;5031126;28;20025;-76
2021/10/22 01:56:49;;;;;;;5.25;1.90;;;;;;;5.07;99.79;100611.22;5032042;28;20079;-76
2021/10/22 01:59:14;;;;;;;3.47;1.90;;;;;;;4.97;99.31;100610.22;5032329;28;20215;-76
2021/10/22 02:01:39;;;;;;;4.85;2.15;;;;;;;4.90;99.91;100612.47;5032358;28;20025;-76
2021/10/22 02:04:05;;;;;;;5.15;1.88;;;;;;;4.97;100.00;100611.06;5029974;28;20026;-76
2021/10/22 02:06:30;;;;;;;4.88;1.98;;;;;;;4.94;99.55;100613.91;5031784;28;20030;-76
2021/10/22 02:08:55;;;;;;;3.83;2.00;;;;;;;4.80;98.69;100612.31;5031629;28;20092;-76
2021/10/22 02:11:21;;;;;;;4.13;2.67;;;;;;;4.70;100.00;100615.72;5029498;28;20387;-76
2021/10/22 02:13:46;;;;;;;4.70;1.90;;;;;;;4.73;99.26;100620.72;5030745;28;20045;-76
2021/10/22 02:16:11;;;;;;;5.18;1.70;;;;;;;4.73;100.00;100621.56;5028725;28;20075;-76
2021/10/22 02:18:37;;;;;;;4.78;2.33;;;;;;;4.79;99.91;100621.13;5031838;28;20105;-76
2021/10/22 02:21:02;;;;;;;3.00;1.90;;;;;;;4.77;98.65;100619.56;5031605;28;20048;-75
2021/10/22 02:23:28;;;;;;;6.00;1.52;;;;;;;4.73;97.92;100615.50;5031264;28;20026;-76
2021/10/22 02:25:53;;;;;;;4.72;2.05;;;;;;;4.70;97.55;100624.41;5030595;28;20390;-76
2021/10/22 02:28:18;;;;;;;5.30;2.10;;;;;;;4.70;96.78;100619.19;5029446;28;20414;-76
2021/10/22 02:30:44;;;;;;;5.18;2.20;;;;;;;4.69;97.56;100630.59;5029990;28;20037;-76
2021/10/22 02:33:11;;;;;;;4.63;1.88;;;;;;;4.61;98.42;100632.94;5026150;28;20029;-76
2021/10/22 02:35:37;;;;;;;6.88;1.85;;;;;;;4.58;100.00;100633.16;5030790;28;20036;-76
2021/10/22 02:38:02;;;;;;;6.43;1.88;;;;;;;4.56;99.60;100622.78;5031132;28;20034;-76
2021/10/22 02:40:28;;;;;;;5.80;2.15;;;;;;;4.58;100.00;100628.75;5030554;28;20406;-76
2021/10/22 02:42:53;;;;;;;4.15;1.80;;;;;;;4.50;99.78;100631.06;5029332;28;20037;-76
2021/10/22 02:45:19;;;;;;;3.83;1.70;;;;;;;4.49;99.82;100631.19;5030909;28;20037;-76
2021/10/22 02:47:45;;;;;;;3.63;1.80;;;;;;;4.42;99.64;100631.63;5027046;28;20099;-76
2021/10/22 02:50:10;;;;;;;3.72;1.63;;;;;;;4.37;100.00;100641.59;5027793;28;20506;-76
2021/10/22 02:52:36;;;;;;;5.15;1.88;;;;;;;4.38;100.00;100637.19;5031014;28;20022;-76
2021/10/22 02:55:01;;;;;;;3.63;1.67;;;;;;;4.38;99.39;100637.19;5030979;28;20084;-76
2021/10/22 02:57:27;;;;;;;5.40;1.60;;;;;;;4.28;99.28;100630.94;5030739;28;20022;-76
2021/10/22 02:59:52;;;;;;;5.70;1.80;;;;;;;4.29;99.73;100628.22;5030553;28;20045;-76
2021/10/22 03:02:18;;;;;;;4.43;2.22;;;;;;;4.32;97.90;100632.41;5029939;28;20049;-76
2021/10/22 03:04:44;;;;;;;4.57;1.90;;;;;;;4.25;100.00;100637.25;5030364;28;20072;-76
2021/10/22 03:07:09;;;;;;;5.07;1.95;;;;;;;4.17;99.68;100644.78;5029236;28;20038;-76
2021/10/22 03:09:35;;;;;;;6.50;1.95;;;;;;;4.09;100.00;100647.09;5030471;28;20109;-76
2021/10/22 03:12:01;;;;;;;4.28;1.90;;;;;;;4.07;100.00;100648.97;5030977;28;20061;-76
2021/10/22 03:14:26;;;;;;;5.38;2.00;;;;;;;4.12;100.00;100636.41;5027021;28;20068;-76
2021/10/22 03:16:51;;;;;;;3.85;1.92;;;;;;;4.18;98.43;100643.84;5028882;28;20087;-76
2021/10/22 03:19:17;;;;;;;3.25;1.83;;;;;;;4.16;100.00;100650.97;5030087;28;20149;-76
2021/10/22 03:21:42;;;;;;;3.95;1.77;;;;;;;4.13;99.89;100644.16;5030484;28;20063;-75
2021/10/22 03:24:08;;;;;;;3.28;1.80;;;;;;;4.08;99.74;100653.28;5028114;28;20304;-76
2021/10/22 03:26:33;;;;;;;4.10;2.10;;;;;;;3.97;100.00;100654.03;5029436;28;20038;-76
2021/10/22 03:28:59;;;;;;;5.85;2.10;;;;;;;3.91;100.00;100644.84;5030093;28;20117;-76
2021/10/22 03:31:25;;;;;;;4.00;1.98;;;;;;;3.95;100.00;100651.50;5030317;28;20387;-76
2021/10/22 03:33:51;;;;;;;4.82;1.80;;;;;;;4.12;100.00;100662.59;5025277;28;20030;-76
2021/10/22 03:36:16;;;;;;;2.67;1.58;;;;;;;4.13;100.00;100656.41;5029386;28;20112;-76
2021/10/22 03:38:42;;;;;;;5.43;2.28;;;;;;;4.13;98.42;100654.63;5029677;28;20117;-76
2021/10/22 03:41:08;;;;;;;4.40;1.77;;;;;;;4.02;98.69;100657.97;5030481;28;20029;-76
2021/10/22 03:43:35;;;;;;;3.97;2.25;;;;;;;3.93;100.00;100663.00;5028672;28;20029;-76
2021/10/22 03:46:00;;;;;;;4.97;2.03;;;;;;;3.96;100.00;100654.97;5029683;28;20386;-76
2021/10/22 03:48:25;;;;;;;5.13;2.03;;;;;;;3.90;99.60;100663.25;5024950;28;20030;-76
2021/10/22 03:50:51;;;;;;;4.03;2.03;;;;;;;3.82;99.41;100658.53;5027921;28;20029;-76
2021/10/22 03:53:16;;;;;;;4.50;2.33;;;;;;;3.73;99.63;100660.00;5029668;28;20052;-76
2021/10/22 03:55:42;;;;;;;5.57;2.08;;;;;;;3.64;99.35;100663.22;5028344;28;20021;-76
2021/10/22 03:58:07;;;;;;;4.30;1.90;;;;;;;3.62;100.00;100657.25;5029438;28;20064;-76
2021/10/22 04:00:32;;;;;;;4.28;1.95;;;;;;;3.69;100.00;100660.31;5029609;28;20029;-76
2021/10/22 04:02:58;;;;;;;4.63;2.08;;;;;;;3.65;100.00;100666.66;5028083;28;20406;-76
2021/10/22 04:05:23;;;;;;;3.55;2.00;;;;;;;3.59;100.00;100660.91;5027825;28;20082;-76
2021/10/22 04:07:48;;;;;;;5.70;2.25;;;;;;;3.70;98.60;100669.84;5029868;28;20033;-76
2021/10/22 04:10:14;;;;;;;4.35;2.10;;;;;;;3.67;99.23;100665.66;5027661;28;20471;-76
2021/10/22 04:12:39;;;;;;;5.45;2.33;;;;;;;3.62;100.00;100670.34;5030023;28;20025;-76
2021/10/22 04:15:05;;;;;;;6.35;2.90;;;;;;;3.54;100.00;100662.19;5027118;28;20171;-75
2021/10/22 04:17:30;;;;;;;4.78;2.05;;;;;;;3.50;100.00;100656.31;5029661;28;20033;-76
2021/10/22 04:19:56;;;;;;;5.35;2.58;;;;;;;3.52;100.00;100659.66;5029719;28;20033;-76
2021/10/22 04:22:22;;;;;;;4.43;2.50;;;;;;;3.49;100.00;100662.50;5029262;28;20041;-76
2021/10/22 04:24:47;;;;;;;5.50;2.25;;;;;;;3.48;100.00;100666.06;5028130;28;20514;-76
2021/10/22 04:27:12;;;;;;;3.78;2.20;;;;;;;3.57;100.00;100662.78;5028267;28;20053;-76
2021/10/22 04:29:38;;;;;;;5.20;2.75;;;;;;;3.61;100.00;100664.28;5029656;28;20127;-76
2021/10/22 04:32:03;;;;;;;3.42;2.10;;;;;;;3.63;100.00;100664.19;5028829;28;20486;-76
2021/10/22 04:34:29;;;;;;;4.05;2.30;;;;;;;3.50;99.43;100669.38;5024544;28;20382;-76
2021/10/22 04:37:09;;;;;;;5.00;2.78;;;;;;;3.40;100.00;100665.72;5030018;28;20037;-76
2021/10/22 04:42:19;;;;;;;7.20;3.22;;;;;;;3.33;100.00;100672.28;5028750;28;20040;-76
2021/10/22 04:44:45;;;;;;;6.47;2.72;;;;;;;3.48;100.00;100684.34;5027796;28;20029;-76
2021/10/22 04:47:10;;;;;;;5.53;2.63;;;;;;;3.51;100.00;100676.31;5029518;28;20391;-76
2021/10/22 04:49:35;;;;;;;4.43;2.70;;;;;;;3.43;100.00;100680.34;5024596;28;20487;-76
2021/10/22 04:52:01;;;;;;;5.55;3.10;;;;;;;3.40;99.41;100676.16;5029306;28;20084;-76
2021/10/22 04:54:26;;;;;;;7.13;3.00;;;;;;;3.29;99.98;100679.50;5028634;28;20038;-76
2021/10/22 04:56:52;;;;;;;4.95;2.75;;;;;;;3.27;99.89;100672.72;5029669;28;20351;-76
2021/10/22 04:59:17;;;;;;;5.32;2.92;;;;;;;3.24;100.00;100665.88;5029192;28;20038;-76
2021/10/22 05:01:42;;;;;;;6.47;3.28;;;;;;;3.17;100.00;100675.94;5030077;28;20065;-76
2021/10/22 05:04:08;;;;;;;4.53;2.92;;;;;;;3.13;100.00;100684.06;5031455;28;20057;-76
2021/10/22 05:06:33;;;;;;;4.65;2.90;;;;;;;3.12;100.00;100682.38;5035884;28;20557;-76
2021/10/22 05:08:58;;;;;;;8.13;3.60;;;;;;;3.19;100.00;100686.25;5035722;28;20117;-76
2021/10/22 05:11:24;;;;;;;4.85;2.72;;;;;;;3.21;100.00;100684.38;5034098;28;20026;-76
2021/10/22 05:13:50;;;;;;;6.78;2.80;;;;;;;3.25;100.00;100688.47;5034403;28;20044;-76
2021/10/22 05:16:15;;;;;;;8.02;2.83;;;;;;;3.23;100.00;100692.13;5032441;28;20038;-76
2021/10/22 05:18:41;;;;;;;7.32;3.00;;;;;;;3.18;100.00;100695.06;5033442;28;20033;-76
2021/10/22 05:21:06;;;;;;;7.47;3.20;;;;;;;3.28;99.65;100697.91;5033259;28;20284;-76
2021/10/22 05:23:31;;;;;;;7.28;2.72;;;;;;;3.26;99.71;100695.38;5032996;28;20038;-76
2021/10/22 05:25:57;;;;;;;6.25;2.72;;;;;;;3.25;100.00;100693.72;5032329;28;20120;-76
2021/10/22 05:28:22;;;;;;;7.20;2.72;;;;;;;3.26;100.00;100697.97;5031943;28;20552;-76
2021/10/22 05:30:47;;;;;;;7.47;2.65;;;;;;;3.24;100.00;100691.19;5032520;28;20037;-76
2021/10/22 05:33:13;;;;;;;8.43;3.20;;;;;;;3.22;100.00;100690.44;5027640;28;20060;-76
2021/10/22 05:35:40;;;;;;;6.88;2.80;;;;;;;3.16;100.00;100695.13;5030905;28;20025;-76
2021/10/22 05:38:05;;;;;;;7.57;3.00;;;;;;;3.12;100.00;100693.69;5032226;28;20525;-76
2021/10/22 05:40:31;;;;;;;6.05;2.50;;;;;;;3.10;100.00;100700.78;5032257;28;20034;-75
2021/10/22 05:42:56;;;;;;;6.18;2.53;;;;;;;3.16;100.00;100697.75;5030899;28;20080;-76
2021/10/22 05:45:21;;;;;;;5.75;2.53;;;;;;;3.23;100.00;100695.59;5031920;28;20041;-76
2021/10/22 05:47:47;;;;;;;5.53;2.42;;;;;;;3.30;100.00;100698.63;5032357;28;20037;-76
2021/10/22 05:50:12;;;;;;;7.45;2.97;;;;;;;3.30;100.00;100699.47;5029974;28;20052;-76
2021/10/22 05:52:37;;;;;;;6.80;2.83;;;;;;;3.38;100.00;100693.72;5032414;28;20115;-76
2021/10/22 05:55:04;;;;;;;7.25;2.70;;;;;;;3.36;100.00;100706.91;5030836;28;20596;-75
2021/10/22 05:57:29;;;;;;;6.93;2.95;;;;;;;3.26;100.00;100705.00;5031784;28;20029;-76
2021/10/22 05:59:54;;;;;;;9.77;3.22;;;;;;;3.21;100.00;100707.06;5031934;28;20407;-76
2021/10/22 06:02:21;;;;;;;6.85;2.67;;;;;;;3.25;100.00;100708.56;5031334;28;20584;-75
2021/10/22 06:04:46;;;;;;;5.00;2.50;;;;;;;3.25;100.00;100713.78;5031525;28;20487;-76
2021/10/22 06:07:12;;;;;;;13.07;3.65;;;;;;;3.34;99.63;100706.19;5032225;28;20037;-76
2021/10/22 06:09:37;;;;;;;10.10;3.40;;;;;;;3.34;100.00;100710.56;5031798;28;20033;-76
2021/10/22 06:12:03;;;;;;;6.03;2.97;;;;;;;3.36;100.00;100709.53;5030688;28;20112;-76
2021/10/22 06:14:29;;;;;;;8.48;3.20;;;;;;;3.32;100.00;100715.06;5028607;28;20033;-76
2021/10/22 06:16:55;;;;;;;6.38;3.42;;;;;;;3.39;100.00;100730.22;5031991;28;20029;-75
2021/10/22 06:19:28;;;;;;;5.07;3.20;;;;;;;3.40;100.00;100729.28;5031899;28;20033;-76
2021/10/22 06:24:18;;;;;;;8.70;3.60;;;;;;;3.61;99.81;100736.66;5030610;28;20099;-75
2021/10/22 06:26:44;;;;;;;9.20;3.88;;;;;;;3.67;100.00;100745.88;5029259;28;20037;-76
2021/10/22 06:29:12;;;;;;;12.95;4.68;;;;;;;3.72;99.78;100744.63;5029773;28;20069;-76
2021/10/22 06:31:40;;;;;;;9.73;4.63;;;;;;;3.79;99.75;100753.75;5030004;28;20486;-76
2021/10/22 06:34:05;;;;;;;8.93;4.45;;;;;;;3.80;99.91;100752.78;5025776;28;20064;-76
2021/10/22 06:36:31;;;;;;;9.75;4.95;;;;;;;3.79;100.00;100758.97;5031148;28;20053;-75
2021/10/22 06:38:57;;;;;;;8.80;4.80;;;;;;;3.81;100.00;100771.94;5030816;28;20040;-76
2021/10/22 06:41:22;;;;;;;9.18;4.95;;;;;;;3.92;100.00;100777.28;5031179;28;20081;-76
2021/10/22 06:43:48;;;;;;;8.43;4.70;;;;;;;3.94;100.00;100783.28;5031023;28;20034;-76
2021/10/22 06:46:16;;;;;;;10.60;5.13;;;;;;;4.06;100.00;100780.78;5030612;28;20078;-76
2021/10/22 06:48:41;;;;;;;11.60;6.20;;;;;;;4.15;100.00;100778.38;5026414;28;20045;-76
2021/10/22 06:51:08;;;;;;;12.52;6.63;;;;;;;4.19;99.88;100781.59;5031324;28;20097;-76
2021/10/22 06:53:35;;;;;;;12.45;6.75;;;;;;;4.23;99.90;100783.06;5031272;28;20022;-76
2021/10/22 06:56:01;;;;;;;13.25;6.40;;;;;;;4.28;99.75;100790.63;5030444;28;20294;-76
2021/10/22 06:58:26;;;;;;;15.40;6.60;;;;;;;4.31;99.76;100791.22;5031039;28;20619;-76
2021/10/22 07:00:52;;;;;;;10.43;6.47;;;;;;;4.36;100.00;100791.78;5029340;28;20034;-76
2021/10/22 07:03:20;;;;;;;16.92;6.60;;;;;;;4.53;99.86;100800.22;5030793;28;20121;-76
2021/10/22 07:08:12;;;;;;;13.82;7.15;;;;;;;4.63;100.00;100803.91;5030305;28;20493;-76
2021/10/22 07:10:38;;;;;;;13.20;7.03;;;;;;;4.72;100.00;100808.50;5030879;28;20029;-76
2021/10/22 07:13:04;;;;;;;13.60;7.38;;;;;;;4.73;99.69;100814.59;5030809;28;20371;-76
2021/10/22 07:15:30;;;;;;;14.13;8.38;;;;;;;4.72;100.00;100819.00;5027779;28;20116;-76
2021/10/22 07:17:56;;;;;;;19.17;8.18;;;;;;;4.83;99.81;100826.91;5029555;28;20040;-76
2021/10/22 07:20:23;;;;;;;16.90;10.30;;;;;;;4.93;98.90;100824.47;5029550;28;20037;-76
2021/10/22 07:22:53;;;;;;;16.75;9.98;;;;;;;5.02;98.56;100836.09;5030256;28;20033;-76
2021/10/22 07:25:21;;;;;;;19.00;9.88;;;;;;;5.06;98.59;100850.69;5028727;28;20041;-76
2021/10/22 07:27:47;;;;;;;16.65;9.00;;;;;;;5.15;98.20;100855.28;5030631;28;20038;-76
2021/10/22 07:30:12;;;;;;;18.17;9.85;;;;;;;5.26;98.35;100851.88;5029681;28;20577;-76
2021/10/22 07:32:37;;;;;;;25.67;10.68;;;;;;;5.36;97.11;100850.25;5029014;28;20075;-76
2021/10/22 07:35:04;;;;;;;22.83;10.70;;;;;;;5.38;97.17;100858.88;5029909;28;20029;-76
2021/10/22 07:37:30;;;;;;;20.65;9.80;;;;;;;5.46;97.06;100856.53;5030205;28;20033;-76
2021/10/22 07:39:55;;;;;;;17.85;9.75;;;;;;;5.50;97.23;100855.34;5030236;28;20038;-76
2021/10/22 07:42:24;;;;;;;15.80;9.18;;;;;;;5.55;96.99;100857.66;5030028;28;20379;-76
2021/10/22 07:44:51;;;;;;;17.42;9.85;;;;;;;5.57;97.06;100854.91;5030009;28;20449;-76
2021/10/22 07:47:16;;;;;;;18.75;10.30;;;;;;;5.64;96.90;100862.22;5028594;28;20029;-76
2021/10/22 07:49:46;;;;;;;16.42;8.80;;;;;;;5.62;97.30;100861.50;5025437;28;20223;-76
2021/10/22 07:52:14;;;;;;;17.40;8.80;;;;;;;5.75;96.75;100870.16;5029370;28;20084;-76
2021/10/22 07:54:40;;;;;;;15.32;8.30;;;;;;;5.82;96.42;100861.84;5029725;28;20490;-76
2021/10/22 07:57:05;;;;;;;15.30;8.18;;;;;;;5.85;96.09;100865.06;5029906;28;20033;-76
2021/10/22 07:59:31;;;;;;;15.75;7.60;;;;;;;5.97;95.98;100867.78;5029848;28;20104;-76
2021/10/22 08:01:56;;;;;;;13.77;6.30;;;;;;;5.97;94.34;100865.16;5029814;28;20037;-76
2021/10/22 08:04:21;;;;;;;12.65;6.80;;;;;;;6.02;95.01;100868.28;5027732;28;20049;-76
2021/10/22 08:06:46;;;;;;;12.98;6.13;;;;;;;6.12;95.17;100872.72;5029689;28;20136;-76
2021/10/22 08:09:12;;;;;;;9.98;5.63;;;;;;;6.19;93.67;100875.72;5028207;28;20036;-76
2021/10/22 08:11:37;;;;;;;12.13;5.10;;;;;;;6.25;93.62;100877.91;5029889;28;20037;-76
2021/10/22 08:14:03;;;;;;;13.07;5.72;;;;;;;6.32;92.69;100880.91;5026938;28;20179;-76
2021/10/22 08:16:28;;;;;;;13.80;5.82;;;;;;;6.31;92.30;100877.41;5029258;28;20043;-76
2021/10/22 08:18:54;;;;;;;11.73;4.85;;;;;;;6.35;91.82;100875.41;5029531;28;20037;-76
2021/10/22 08:21:33;;;;;;;8.27;4.70;;;;;;;6.50;91.70;100879.50;5029555;28;20088;-76
2021/10/22 08:23:58;;;;;;;8.60;4.40;;;;;;;6.54;90.69;100867.81;5028033;28;20506;-76
2021/10/22 08:26:24;;;;;;;11.70;4.00;;;;;;;6.61;90.67;100877.84;5029083;28;20040;-76
2021/10/22 08:28:50;;;;;;;11.50;4.38;;;;;;;6.66;90.50;100873.09;5028235;28;20125;-76
2021/10/22 08:31:15;;;;;;;12.57;4.90;;;;;;;6.78;90.42;100874.75;5029518;28;20068;-76
2021/10/22 08:33:41;;;;;;;9.93;4.65;;;;;;;6.89;89.50;100872.13;5029579;28;20033;-76
2021/10/22 08:36:07;;;;;;;16.80;5.53;;;;;;;6.98;88.92;100879.31;5030064;28;20057;-76
2021/10/22 08:38:32;;;;;;;13.48;4.65;;;;;;;7.01;88.38;100873.81;5033474;28;20405;-76
2021/10/22 08:40:58;;;;;;;10.98;4.60;;;;;;;6.99;87.05;100869.63;5032668;28;20117;-76
2021/10/22 08:43:25;;;;;;;11.07;4.40;;;;;;;6.92;89.67;100873.69;5033565;28;20043;-77
2021/10/22 08:45:59;;;;;;;11.93;4.80;;;;;;;7.07;88.54;100874.28;5033442;28;20041;-77
2021/10/22 08:48:25;;;;;;;9.20;4.22;;;;;;;7.07;89.31;100877.75;5026637;28;20033;-76
2021/10/22 08:50:51;;;;;;;14.20;5.18;;;;;;;7.31;88.54;100874.13;5033856;28;20556;-76
2021/10/22 08:53:16;;;;;;;11.85;5.07;;;;;;;7.52;87.22;100866.31;5033670;28;20076;-76
2021/10/22 08:55:42;;;;;;;11.20;5.63;;;;;;;7.51;86.27;100870.75;5033416;28;20040;-76
2021/10/22 08:58:08;;;;;;;12.80;5.30;;;;;;;7.40;87.24;100868.13;5033417;28;20030;-77
2021/10/22 09:00:34;;;;;;;9.80;5.22;;;;;;;7.44;86.59;100867.78;5033383;28;20103;-77
2021/10/22 09:03:11;;;;;;;10.93;5.68;;;;;;;7.41;86.47;100865.41;5033773;28;20030;-76
2021/10/22 09:05:57;;;;;;;12.65;5.22;;;;;;;7.39;87.08;100869.94;5031595;28;20191;-76
2021/10/22 09:08:30;;;;;;;14.45;5.28;;;;;;;7.50;86.58;100855.91;5031173;28;20033;-77
2021/10/22 09:10:55;;;;;;;13.57;5.03;;;;;;;7.52;85.72;100853.16;5033999;28;20041;-77
2021/10/22 09:13:33;;;;;;;11.88;5.43;;;;;;;7.57;86.39;100853.63;5033468;28;20042;-77
2021/10/22 09:16:00;;;;;;;15.98;6.00;;;;;;;7.56;86.78;100851.97;5031023;28;20034;-77
2021/10/22 09:18:29;;;;;;;10.57;5.53;;;;;;;7.60;86.80;100856.84;5031590;28;20044;-77
2021/10/22 09:21:00;;;;;;;12.52;5.65;;;;;;;7.69;86.80;100851.78;5033149;28;20090;-77
2021/10/22 09:23:40;;;;;;;15.98;5.82;;;;;;;7.77;85.90;100865.16;5033805;28;20117;-77
2021/10/22 09:26:23;;;;;;;13.65;5.43;;;;;;;7.70;86.69;100866.59;5032444;28;20029;-77
2021/10/22 09:28:49;;;;;;;10.38;5.70;;;;;;;7.62;88.44;100864.59;5032236;28;20390;-76
2021/10/22 09:31:17;;;;;;;15.23;6.97;;;;;;;7.79;85.85;100866.69;5033408;28;20379;-77
2021/10/22 09:33:50;;;;;;;17.80;7.22;;;;;;;7.84;86.49;100867.19;5028473;28;20026;-77
2021/10/22 09:36:37;;;;;;;9.95;6.05;;;;;;;7.84;87.10;100872.44;5032046;28;20107;-77
2021/10/22 09:39:22;;;;;;;16.00;6.78;;;;;;;7.91;86.56;100871.94;5033191;28;20299;-77
2021/10/22 09:41:55;;;;;;;13.73;6.93;;;;;;;7.96;85.09;100878.50;5033328;28;20030;-77
2021/10/22 09:44:28;;;;;;;13.95;6.35;;;;;;;7.84;86.40;100882.97;5031723;28;20176;-76
2021/10/22 09:47:05;;;;;;;14.23;6.10;;;;;;;7.86;88.46;100891.59;5032858;28;20072;-77
2021/10/22 09:49:37;;;;;;;12.40;5.57;;;;;;;8.03;86.21;100902.50;5026526;28;20037;-77
2021/10/22 09:52:12;;;;;;;11.50;5.53;;;;;;;8.01;87.40;100888.66;5030862;28;20030;-76
2021/10/22 09:54:37;;;;;;;12.27;5.70;;;;;;;8.13;86.64;100886.78;5032803;28;20039;-77
2021/10/22 09:57:05;;;;;;;11.80;5.82;;;;;;;8.25;85.06;100901.59;5033001;28;20037;-77
2021/10/22 09:59:31;;;;;;;13.23;5.40;;;;;;;8.34;85.13;100903.44;5032978;28;20379;-77
2021/10/22 10:02:01;;;;;;;10.60;4.90;;;;;;;8.33;86.90;100893.06;5032847;28;20038;-79
2021/10/22 10:04:28;;;;;;;12.07;5.50;;;;;;;8.52;84.27;100892.38;5031984;28;20043;-77
2021/10/22 10:06:57;;;;;;;12.40;4.95;;;;;;;8.57;83.97;100895.44;5032642;28;20044;-76
2021/10/22 10:09:26;;;;;;;14.90;4.25;;;;;;;8.63;83.42;100892.31;5030754;28;20045;-77
2021/10/22 10:11:53;;;;;;;12.57;4.18;;;;;;;8.70;83.58;100893.47;5033025;28;20029;-77
2021/10/22 10:14:21;;;;;;;9.75;4.20;;;;;;;8.69;83.05;100892.59;5029350;28;20026;-77
2021/10/22 10:16:47;;;;;;;8.90;3.90;;;;;;;8.77;84.02;100899.03;5032314;28;20029;-78
2021/10/22 10:19:24;;;;;;;10.52;3.85;;;;;;;8.90;83.68;100902.28;5032154;28;20026;-77
2021/10/22 10:21:53;;;;;;;12.98;4.35;;;;;;;9.14;82.54;100901.97;5032270;28;20088;-77
2021/10/22 10:24:26;;;;;;;10.68;3.92;;;;;;;9.18;82.54;100899.91;5031826;28;20034;-77
2021/10/22 10:27:01;;;;;;;9.25;4.03;;;;;;;9.08;82.56;100907.78;5031668;28;20669;-77
2021/10/22 10:29:29;;;;;;;9.90;3.97;;;;;;;9.30;81.80;100906.75;5032247;28;20112;-77
2021/10/22 10:31:59;;;;;;;12.00;4.57;;;;;;;9.43;81.42;100907.34;5030725;28;20033;-77
2021/10/22 10:34:27;;;;;;;9.40;4.10;;;;;;;9.32;81.56;100905.66;5026972;28;20040;-77
2021/10/22 10:36:55;;;;;;;11.07;4.85;;;;;;;9.21;82.63;100910.19;5032078;28;20033;-77
2021/10/22 10:39:46;;;;;;;10.73;4.85;;;;;;;9.25;82.56;100914.25;5031754;28;20046;-77
2021/10/22 10:42:40;;;;;;;9.95;4.32;;;;;;;9.23;82.46;100903.00;5031235;28;20037;-77
2021/10/22 10:45:08;;;;;;;13.98;4.43;;;;;;;9.30;81.54;100914.69;5030344;28;20043;-77
2021/10/22 10:47:38;;;;;;;10.48;4.88;;;;;;;9.38;80.96;100909.56;5032489;28;20135;-77
2021/10/22 10:50:04;;;;;;;11.15;4.63;;;;;;;9.25;81.44;100912.44;5032821;28;20025;-76
2021/10/22 10:52:36;;;;;;;9.48;4.85;;;;;;;9.25;81.06;100914.25;5034867;28;20104;-76
2021/10/22 10:55:26;;;;;;;9.13;4.50;;;;;;;9.29;80.18;100911.19;5035642;28;20467;-77
2021/10/22 10:57:56;;;;;;;13.07;4.15;;;;;;;9.21;79.75;100899.66;5029356;28;20026;-76
2021/10/22 11:00:24;;;;;;;10.85;4.30;;;;;;;9.15;79.46;100898.34;5031396;28;20529;-77
2021/10/22 11:03:05;;;;;;;10.30;4.68;;;;;;;9.14;81.72;100905.44;5031664;28;20052;-77
2021/10/22 11:05:43;;;;;;;8.38;4.25;;;;;;;9.32;80.21;100904.81;5031487;28;20502;-77
2021/10/22 11:08:18;;;;;;;7.13;3.67;;;;;;;9.29;80.87;100903.25;5030923;28;20041;-77
2021/10/22 11:13:45;;;;;;;10.68;4.63;;;;;;;9.60;77.67;100905.00;5031482;28;20496;-77
2021/10/22 11:16:20;;;;;;;11.73;4.50;;;;;;;9.64;78.49;100903.78;5028137;28;20124;-77
2021/10/22 11:18:48;;;;;;;10.00;3.30;;;;;;;9.87;75.24;100891.16;5030199;28;20040;-77
2021/10/22 11:21:14;;;;;;;9.38;3.50;;;;;;;9.73;72.83;100895.88;5029573;28;20052;-76
2021/10/22 11:23:39;;;;;;;7.10;2.38;;;;;;;9.81;73.34;100891.72;5031140;28;20029;-76
2021/10/22 11:26:05;;;;;;;6.15;2.00;;;;;;;9.97;72.82;100895.47;5029446;28;20037;-77
2021/10/22 11:28:30;;;;;;;7.70;2.13;;;;;;;10.07;68.20;100900.75;5030849;28;20041;-76
2021/10/22 11:30:56;;;;;;;6.20;1.90;;;;;;;10.07;69.56;100902.56;5029797;28;20040;-77
2021/10/22 11:33:27;;;;;;;8.07;1.88;;;;;;;10.20;66.68;100898.66;5025520;28;20037;-77
2021/10/22 11:35:56;;;;;;;7.68;2.40;;;;;;;10.08;66.82;100893.66;5031542;28;20029;-77
2021/10/22 11:38:27;;;;;;;5.60;1.92;;;;;;;9.99;65.87;100888.25;5030450;28;20033;-76